Time;durP1;ratioP1;P1;durP2;ratioP2;P2;SDS_P1;SDS_P2;PMS_P1;PMS_P2;Temp;Humidity;BMP_temperature;BMP_pressure;BME280_temperature;BME280_humidity;BME280_pressure;Samples;Min_cycle;Max_cycle;Signal;HPM_P1;HPM_P2
2021/03/05 00:02:09;;;;;;;14.90;9.88;;;6.20;99.90;;;;;;4941003;29;20403;-80
2021/03/05 00:04:35;;;;;;;16.02;9.73;;;6.20;99.90;;;;;;4940126;29;20043;-81
2021/03/05 00:07:06;;;;;;;15.73;9.93;;;6.20;99.90;;;;;;4940376;29;20138;-80
2021/03/05 00:09:38;;;;;;;16.13;9.32;;;6.20;99.90;;;;;;4940256;29;20045;-80
2021/03/05 00:12:12;;;;;;;12.40;8.35;;;6.20;99.90;;;;;;4940218;29;20495;-80
2021/03/05 00:14:44;;;;;;;15.95;9.93;;;6.20;99.90;;;;;;4942703;28;20126;-80
2021/03/05 00:17:15;;;;;;;11.57;7.30;;;6.20;99.90;;;;;;4939545;29;20044;-80
2021/03/05 00:19:47;;;;;;;11.38;7.40;;;6.10;99.90;;;;;;4929826;29;20078;-80
2021/03/05 00:22:18;;;;;;;9.23;6.88;;;6.10;99.90;;;;;;4928404;29;20043;-80
2021/03/05 00:24:49;;;;;;;12.40;6.18;;;6.20;99.90;;;;;;4939994;29;20043;-80
2021/03/05 00:27:21;;;;;;;8.25;5.80;;;6.20;99.90;;;;;;4924600;28;20070;-80
2021/03/05 00:29:47;;;;;;;9.20;5.47;;;6.20;99.90;;;;;;4924402;29;20126;-80
2021/03/05 00:32:18;;;;;;;9.88;5.57;;;6.10;99.90;;;;;;4940900;29;20106;-80
2021/03/05 00:34:50;;;;;;;6.88;4.72;;;6.10;99.90;;;;;;4940290;29;20053;-81
2021/03/05 00:37:21;;;;;;;8.48;5.80;;;6.10;99.90;;;;;;4925133;29;20574;-80
2021/03/05 00:39:52;;;;;;;8.43;4.97;;;6.00;99.90;;;;;;4924996;28;20415;-80
2021/03/05 00:42:24;;;;;;;7.75;4.72;;;6.00;99.90;;;;;;4924792;29;20184;-80
2021/03/05 00:44:55;;;;;;;6.72;4.43;;;6.00;99.90;;;;;;4924806;29;20078;-80
2021/03/05 00:47:26;;;;;;;8.13;5.57;;;6.00;99.90;;;;;;4924515;29;20106;-80
2021/03/05 00:49:58;;;;;;;6.72;3.65;;;6.00;99.90;;;;;;4925115;28;20497;-80
2021/03/05 00:52:30;;;;;;;6.70;3.95;;;6.00;99.90;;;;;;4925105;29;20062;-80
2021/03/05 00:54:58;;;;;;;6.13;4.57;;;6.00;99.90;;;;;;4924124;29;20098;-80
2021/03/05 00:57:30;;;;;;;5.72;4.38;;;5.90;99.90;;;;;;4924841;29;20107;-80
2021/03/05 01:00:14;;;;;;;6.57;4.13;;;5.90;99.90;;;;;;4924869;29;20138;-81
2021/03/05 01:02:46;;;;;;;7.70;4.40;;;5.90;99.90;;;;;;4924879;29;20067;-80
2021/03/05 01:05:19;;;;;;;7.30;4.43;;;5.90;99.90;;;;;;4924998;29;20143;-80
2021/03/05 01:07:50;;;;;;;6.60;4.43;;;5.90;99.90;;;;;;4940344;29;20047;-80
2021/03/05 01:10:27;;;;;;;8.35;5.13;;;5.90;99.90;;;;;;4925364;29;20086;-81
2021/03/05 01:12:58;;;;;;;8.70;5.18;;;5.90;99.90;;;;;;4924971;29;20043;-80
2021/03/05 01:15:29;;;;;;;7.03;5.10;;;5.90;99.90;;;;;;4940359;28;20039;-80
2021/03/05 01:18:01;;;;;;;11.88;6.43;;;5.90;99.90;;;;;;4924325;29;20084;-80
2021/03/05 01:20:28;;;;;;;8.77;5.95;;;5.90;99.90;;;;;;4939766;29;20066;-80
2021/03/05 01:22:55;;;;;;;10.05;6.50;;;5.90;99.90;;;;;;4924120;29;20118;-79
2021/03/05 01:25:31;;;;;;;9.85;6.72;;;5.90;99.90;;;;;;4925002;29;20446;-80
2021/03/05 01:28:02;;;;;;;12.00;8.02;;;5.90;99.90;;;;;;4939800;29;20051;-80
2021/03/05 01:30:34;;;;;;;11.82;7.80;;;5.90;99.90;;;;;;4939286;29;20039;-80
2021/03/05 01:33:06;;;;;;;15.82;7.60;;;5.90;99.90;;;;;;4924349;29;20126;-80
2021/03/05 01:35:37;;;;;;;11.63;7.88;;;5.90;99.90;;;;;;4924238;29;20044;-80
2021/03/05 01:38:08;;;;;;;11.80;8.05;;;5.90;99.90;;;;;;4924035;29;20063;-80
2021/03/05 01:40:44;;;;;;;13.32;7.10;;;5.90;99.90;;;;;;4939952;29;20058;-80
2021/03/05 01:43:18;;;;;;;12.60;7.97;;;5.90;99.90;;;;;;4940007;29;20075;-80
2021/03/05 01:45:49;;;;;;;15.98;8.27;;;5.90;99.90;;;;;;4924134;29;20051;-80
2021/03/05 01:48:21;;;;;;;10.75;6.93;;;5.90;99.90;;;;;;4924151;29;20048;-80
2021/03/05 01:50:58;;;;;;;11.68;7.85;;;5.90;99.90;;;;;;4923603;29;20531;-80
2021/03/05 01:53:25;;;;;;;12.45;7.40;;;6.00;99.90;;;;;;4923185;29;20094;-80
2021/03/05 01:55:51;;;;;;;14.35;8.40;;;6.00;99.90;;;;;;4923135;29;20142;-80
2021/03/05 01:58:23;;;;;;;12.30;8.43;;;6.00;99.90;;;;;;4923877;29;20075;-80
2021/03/05 02:01:09;;;;;;;15.02;9.38;;;5.90;99.90;;;;;;4923146;28;20142;-80
2021/03/05 02:03:40;;;;;;;16.13;9.38;;;5.90;99.90;;;;;;4923441;29;20115;-80
2021/03/05 02:06:11;;;;;;;13.52;9.43;;;5.90;99.90;;;;;;4922942;29;20047;-80
2021/03/05 02:08:43;;;;;;;17.80;10.27;;;5.90;99.90;;;;;;4923548;29;20047;-80
2021/03/05 02:11:17;;;;;;;17.60;10.73;;;6.00;99.90;;;;;;4938114;29;20062;-80
2021/03/05 02:13:50;;;;;;;16.38;10.57;;;5.90;99.90;;;;;;4922839;29;20503;-80
2021/03/05 02:16:31;;;;;;;18.40;10.60;;;5.90;99.90;;;;;;4923595;29;20063;-80
2021/03/05 02:19:36;;;;;;;15.25;9.70;;;5.90;99.90;;;;;;4923193;29;20459;-80
2021/03/05 02:22:27;;;;;;;17.42;9.15;;;6.00;99.90;;;;;;4923441;29;20051;-80
2021/03/05 02:25:19;;;;;;;15.65;10.35;;;6.00;99.90;;;;;;4938040;29;20051;-80
2021/03/05 02:28:28;;;;;;;12.93;9.68;;;6.10;99.90;;;;;;4922941;29;20422;-80
2021/03/05 02:31:13;;;;;;;15.68;9.95;;;6.00;99.90;;;;;;4937117;29;20059;-80
2021/03/05 02:33:50;;;;;;;17.38;9.63;;;6.00;99.90;;;;;;4938022;29;20047;-80
2021/03/05 02:36:42;;;;;;;14.68;9.93;;;6.00;99.90;;;;;;4922708;28;20047;-80
2021/03/05 02:39:16;;;;;;;15.23;9.13;;;6.00;99.90;;;;;;4938030;29;20043;-80
2021/03/05 02:41:45;;;;;;;13.50;8.88;;;5.90;99.90;;;;;;4923859;29;20414;-80
2021/03/05 02:44:26;;;;;;;16.02;9.00;;;6.00;99.90;;;;;;4926665;29;20577;-80
2021/03/05 02:47:04;;;;;;;15.38;8.93;;;6.00;99.90;;;;;;4926727;29;20047;-80
2021/03/05 02:49:39;;;;;;;13.38;8.70;;;6.00;99.90;;;;;;4926323;29;20144;-80
2021/03/05 02:52:17;;;;;;;12.60;9.10;;;6.00;99.90;;;;;;4941557;29;20059;-80
2021/03/05 02:54:56;;;;;;;17.58;9.35;;;5.90;99.90;;;;;;4926134;29;20039;-79
2021/03/05 02:57:27;;;;;;;13.32;9.55;;;5.90;99.90;;;;;;4926213;29;20043;-80
2021/03/05 02:59:59;;;;;;;14.63;9.32;;;6.00;99.90;;;;;;4926432;29;20099;-80
2021/03/05 03:02:33;;;;;;;13.48;9.07;;;6.00;99.90;;;;;;4941496;29;20039;-80
2021/03/05 03:05:05;;;;;;;13.43;8.13;;;6.00;99.90;;;;;;4941123;29;20071;-80
2021/03/05 03:07:40;;;;;;;13.27;8.13;;;6.00;99.90;;;;;;4926095;29;20043;-80
2021/03/05 03:10:12;;;;;;;15.13;9.45;;;6.00;99.90;;;;;;4926192;29;20471;-80
2021/03/05 03:12:45;;;;;;;14.55;9.60;;;5.90;99.90;;;;;;4942300;29;20049;-80
2021/03/05 03:15:18;;;;;;;13.70;8.68;;;5.90;99.90;;;;;;4926435;29;20066;-80
2021/03/05 03:17:51;;;;;;;12.38;8.50;;;5.90;99.90;;;;;;4942482;29;20050;-80
2021/03/05 03:20:20;;;;;;;13.73;7.35;;;5.90;99.90;;;;;;4941237;29;20058;-80
2021/03/05 03:22:51;;;;;;;11.70;8.32;;;5.90;99.90;;;;;;4925878;29;20051;-80
2021/03/05 03:25:23;;;;;;;14.27;8.40;;;5.90;99.90;;;;;;4925996;29;20081;-80
2021/03/05 03:27:55;;;;;;;15.85;7.97;;;5.90;99.90;;;;;;4925716;29;20154;-80
2021/03/05 03:30:27;;;;;;;17.42;9.05;;;5.90;99.90;;;;;;4926317;29;20071;-80
2021/03/05 03:32:54;;;;;;;10.90;7.88;;;5.90;99.90;;;;;;4925481;29;20043;-80
2021/03/05 03:35:20;;;;;;;14.75;8.25;;;5.90;99.90;;;;;;4925125;29;20047;-80
2021/03/05 03:37:47;;;;;;;10.10;7.32;;;5.90;99.90;;;;;;4940968;29;20517;-80
2021/03/05 03:40:20;;;;;;;14.65;8.27;;;5.90;99.90;;;;;;4926538;29;20043;-80
2021/03/05 03:42:47;;;;;;;12.30;7.35;;;5.90;99.90;;;;;;4925316;29;20062;-80
2021/03/05 03:45:22;;;;;;;13.15;8.65;;;5.80;99.90;;;;;;4925824;29;20081;-80
2021/03/05 03:47:51;;;;;;;13.63;8.98;;;5.90;99.90;;;;;;4925016;29;20057;-80
2021/03/05 03:50:30;;;;;;;11.90;8.35;;;5.80;99.90;;;;;;4957593;29;20043;-80
2021/03/05 03:53:11;;;;;;;10.77;7.53;;;5.80;99.90;;;;;;4924360;29;20422;-80
2021/03/05 03:55:43;;;;;;;12.05;7.60;;;5.80;99.90;;;;;;4940304;29;20110;-80
2021/03/05 03:58:09;;;;;;;11.55;8.48;;;5.90;99.90;;;;;;4925292;29;20118;-80
2021/03/05 04:00:43;;;;;;;12.68;7.90;;;5.90;99.90;;;;;;4925642;29;20062;-80
2021/03/05 04:03:17;;;;;;;14.48;7.28;;;5.90;99.90;;;;;;4926269;29;20404;-80
2021/03/05 04:05:51;;;;;;;16.17;8.65;;;5.90;99.90;;;;;;4925621;29;20053;-80
2021/03/05 04:08:24;;;;;;;14.95;8.52;;;5.90;99.90;;;;;;4941065;29;20054;-80
2021/03/05 04:10:56;;;;;;;12.65;8.48;;;5.90;99.90;;;;;;4941880;29;20044;-80
2021/03/05 04:13:28;;;;;;;16.40;9.63;;;5.90;99.90;;;;;;4926436;29;20053;-80
2021/03/05 04:16:00;;;;;;;17.33;9.70;;;5.80;99.90;;;;;;4926462;29;20075;-80
2021/03/05 04:18:36;;;;;;;16.67;9.63;;;5.70;99.90;;;;;;4926381;29;20062;-80
2021/03/05 04:21:15;;;;;;;15.88;9.85;;;5.70;99.90;;;;;;4927207;29;20070;-80
2021/03/05 04:23:47;;;;;;;15.18;9.13;;;5.60;99.90;;;;;;4927147;29;20047;-81
2021/03/05 04:26:18;;;;;;;17.88;11.13;;;5.60;99.90;;;;;;4927126;29;20071;-80
2021/03/05 04:28:50;;;;;;;20.90;11.05;;;5.60;99.90;;;;;;4941479;29;20058;-80
2021/03/05 04:31:21;;;;;;;19.38;10.98;;;5.50;99.90;;;;;;4942115;29;20063;-80
2021/03/05 04:33:55;;;;;;;20.50;11.43;;;5.40;99.90;;;;;;4941760;29;20058;-80
2021/03/05 04:36:21;;;;;;;22.63;11.90;;;5.40;99.90;;;;;;4926311;29;20101;-80
2021/03/05 04:38:53;;;;;;;20.45;10.93;;;5.40;99.90;;;;;;4941685;29;20122;-80
2021/03/05 04:41:19;;;;;;;19.80;11.90;;;5.30;99.90;;;;;;4925890;29;20059;-80
2021/03/05 04:43:50;;;;;;;20.70;12.73;;;5.30;99.90;;;;;;4958799;28;20043;-80
2021/03/05 04:46:24;;;;;;;22.08;12.38;;;5.30;99.90;;;;;;4958897;29;20503;-80
2021/03/05 04:48:56;;;;;;;18.27;11.90;;;5.20;99.90;;;;;;4925962;29;20057;-80
2021/03/05 04:51:22;;;;;;;19.02;10.95;;;5.20;99.90;;;;;;4925685;29;20043;-80
2021/03/05 04:53:53;;;;;;;23.02;12.30;;;5.20;99.90;;;;;;4942670;29;20510;-80
2021/03/05 04:56:20;;;;;;;21.52;12.43;;;5.20;99.90;;;;;;4959152;28;20061;-80
2021/03/05 04:58:46;;;;;;;21.08;12.38;;;5.10;99.90;;;;;;4925508;29;20050;-80
2021/03/05 05:01:17;;;;;;;22.13;12.65;;;5.10;99.90;;;;;;4941303;29;20058;-79
2021/03/05 05:03:49;;;;;;;23.38;12.65;;;5.00;99.90;;;;;;4925924;29;20039;-80
2021/03/05 05:06:21;;;;;;;25.05;14.73;;;5.00;99.90;;;;;;4926336;29;20051;-80
2021/03/05 05:08:52;;;;;;;23.92;14.20;;;5.00;99.90;;;;;;4942250;29;20047;-80
2021/03/05 05:11:24;;;;;;;25.70;14.90;;;5.00;99.90;;;;;;4941298;29;20087;-79
2021/03/05 05:13:55;;;;;;;24.45;14.00;;;4.90;99.90;;;;;;4941360;29;20043;-80
2021/03/05 05:16:28;;;;;;;44.80;14.93;;;4.80;99.90;;;;;;4941192;29;20039;-80
2021/03/05 05:18:54;;;;;;;24.90;14.75;;;4.80;99.90;;;;;;4941552;29;20043;-80
2021/03/05 05:21:21;;;;;;;25.90;14.38;;;4.80;99.90;;;;;;4941541;29;20051;-80
2021/03/05 05:23:48;;;;;;;29.38;16.15;;;4.70;99.90;;;;;;4925650;29;20498;-80
2021/03/05 05:26:19;;;;;;;39.72;22.25;;;4.70;99.90;;;;;;4926460;29;20084;-80
2021/03/05 05:28:50;;;;;;;29.67;16.77;;;4.60;99.90;;;;;;4941555;29;20099;-80
2021/03/05 05:31:17;;;;;;;27.55;15.20;;;4.60;99.90;;;;;;4924427;29;20094;-79
2021/03/05 05:33:48;;;;;;;27.10;14.55;;;4.60;99.90;;;;;;4924804;29;20070;-79
2021/03/05 05:36:20;;;;;;;32.33;15.82;;;4.60;99.90;;;;;;4922649;29;20147;-80
2021/03/05 05:38:51;;;;;;;23.02;12.75;;;4.50;99.90;;;;;;4938313;29;20130;-80
2021/03/05 05:41:24;;;;;;;22.33;12.20;;;4.40;99.90;;;;;;4937711;29;20070;-79
2021/03/05 05:43:56;;;;;;;;;;;4.40;99.90;;;;;;4948847;29;20047;-77
2021/03/05 05:46:31;;;;;;;19.13;10.57;;;4.30;99.90;;;;;;4939562;28;20014;-78
2021/03/05 05:48:57;;;;;;;19.73;11.60;;;4.20;99.90;;;;;;4922211;29;20075;-77
2021/03/05 05:51:33;;;;;;;18.42;10.88;;;4.20;99.90;;;;;;4915819;29;20049;-77
2021/03/05 05:54:09;;;;;;;22.45;11.75;;;4.10;99.90;;;;;;4916387;29;20040;-78
2021/03/05 05:56:39;;;;;;;18.52;10.40;;;4.10;99.90;;;;;;4915079;29;20044;-77
2021/03/05 05:59:10;;;;;;;18.25;10.85;;;4.10;99.90;;;;;;4918122;29;20043;-77
2021/03/05 06:01:40;;;;;;;29.98;14.05;;;4.10;99.90;;;;;;4918086;29;20074;-77
2021/03/05 06:04:12;;;;;;;27.25;15.60;;;4.10;99.90;;;;;;4920917;28;20046;-77
2021/03/05 06:06:38;;;;;;;24.73;14.23;;;4.10;99.90;;;;;;4934761;29;20118;-78
2021/03/05 06:09:05;;;;;;;21.80;13.27;;;4.10;99.90;;;;;;4932468;29;20164;-77
2021/03/05 06:11:38;;;;;;;39.20;20.08;;;4.10;99.90;;;;;;4918828;29;20070;-77
2021/03/05 06:14:06;;;;;;;24.00;13.45;;;4.00;99.90;;;;;;4950116;29;20582;-77
2021/03/05 06:16:52;;;;;;;17.63;11.07;;;4.00;99.90;;;;;;4953610;28;20089;-78
2021/03/05 06:19:20;;;;;;;20.35;11.52;;;4.00;99.90;;;;;;4937907;29;20051;-77
2021/03/05 06:21:52;;;;;;;24.77;13.10;;;3.90;99.90;;;;;;4953998;29;20058;-77
2021/03/05 06:24:23;;;;;;;22.25;14.13;;;3.90;99.90;;;;;;4932298;29;20054;-77
2021/03/05 06:27:00;;;;;;;20.70;10.95;;;3.90;99.90;;;;;;4902399;29;20063;-77
2021/03/05 06:29:47;;;;;;;17.23;9.98;;;3.90;99.90;;;;;;4917512;29;20151;-78
2021/03/05 06:32:19;;;;;;;20.25;10.82;;;3.90;99.90;;;;;;4919260;29;20723;-78
2021/03/05 06:34:52;;;;;;;16.58;10.57;;;3.90;99.90;;;;;;4923819;28;20039;-77
2021/03/05 06:37:25;;;;;;;19.27;10.68;;;3.80;99.90;;;;;;4918294;29;20048;-77
2021/03/05 06:40:00;;;;;;;17.65;10.35;;;3.80;99.90;;;;;;4917856;29;20067;-77
2021/03/05 06:42:54;;;;;;;16.65;10.45;;;3.80;99.90;;;;;;4934647;29;20047;-77
2021/03/05 06:45:34;;;;;;;18.42;11.18;;;3.80;99.90;;;;;;4904288;29;20054;-77
2021/03/05 06:48:06;;;;;;;19.40;11.75;;;3.80;99.90;;;;;;4917827;29;20062;-77
2021/03/05 06:50:38;;;;;;;14.73;9.85;;;3.70;99.90;;;;;;4921844;29;20137;-78
2021/03/05 06:53:23;;;;;;;10.80;6.53;;;3.80;99.90;;;;;;4936952;29;20062;-77
2021/03/05 06:55:55;;;;;;;10.07;6.80;;;3.70;99.90;;;;;;4922393;29;20047;-77
2021/03/05 06:58:26;;;;;;;7.90;5.55;;;3.70;99.90;;;;;;4936427;29;20142;-77
2021/03/05 07:01:03;;;;;;;9.73;6.90;;;3.60;99.90;;;;;;4937855;29;20495;-77
2021/03/05 07:03:29;;;;;;;10.20;6.40;;;3.50;99.90;;;;;;4921478;29;20051;-78
2021/03/05 07:05:55;;;;;;;14.75;8.55;;;3.50;99.90;;;;;;4934457;29;20748;-77
2021/03/05 07:08:39;;;;;;;19.13;12.18;;;3.40;99.90;;;;;;4952446;29;20047;-77
2021/03/05 07:11:14;;;;;;;20.75;12.38;;;3.40;99.90;;;;;;4936203;29;20074;-77
2021/03/05 07:13:50;;;;;;;9.10;6.32;;;3.30;99.90;;;;;;4937171;29;20149;-77
2021/03/05 07:16:22;;;;;;;25.50;15.93;;;3.30;99.90;;;;;;4931530;28;20039;-77
2021/03/05 07:18:53;;;;;;;34.65;23.20;;;3.20;99.90;;;;;;4920613;29;20053;-77
2021/03/05 07:21:25;;;;;;;14.60;9.23;;;3.30;99.90;;;;;;4935757;29;20905;-78
2021/03/05 07:23:51;;;;;;;12.65;9.45;;;3.20;99.90;;;;;;4916645;29;20058;-78
2021/03/05 07:26:19;;;;;;;22.85;17.65;;;3.10;99.90;;;;;;4912081;29;20055;-77
2021/03/05 07:28:50;;;;;;;16.02;13.20;;;3.10;99.90;;;;;;4900421;29;20044;-77
2021/03/05 07:31:24;;;;;;;10.35;7.50;;;3.10;99.90;;;;;;4939861;29;20830;-77
2021/03/05 07:33:53;;;;;;;27.73;24.77;;;3.10;99.90;;;;;;4936422;29;20123;-77
2021/03/05 07:36:28;;;;;;;;;;;3.10;99.90;;;;;;4933550;29;20059;-77
2021/03/05 07:39:03;;;;;;;9.70;6.30;;;3.00;99.90;;;;;;4951344;29;19923;-77
2021/03/05 07:41:36;;;;;;;14.75;13.15;;;3.00;99.90;;;;;;4936207;28;20234;-77
2021/03/05 07:44:07;;;;;;;11.82;9.27;;;2.90;99.90;;;;;;4955842;28;20043;-77
2021/03/05 07:46:34;;;;;;;9.30;5.28;;;3.00;99.90;;;;;;4955459;28;20117;-78
2021/03/05 07:49:05;;;;;;;8.35;4.72;;;2.90;99.90;;;;;;4954784;28;20121;-77
2021/03/05 07:51:39;;;;;;;8.32;5.30;;;3.00;99.90;;;;;;4954302;28;20046;-77
2021/03/05 07:54:10;;;;;;;10.30;7.43;;;3.00;99.90;;;;;;4940404;28;20053;-77
2021/03/05 07:56:49;;;;;;;10.00;6.50;;;2.90;99.90;;;;;;4939853;28;20042;-77
2021/03/05 07:59:37;;;;;;;9.32;6.13;;;2.90;99.90;;;;;;4953497;28;20490;-77
2021/03/05 08:02:09;;;;;;;8.70;5.63;;;2.90;99.90;;;;;;4932892;29;20043;-77
2021/03/05 08:04:58;;;;;;;9.38;6.07;;;2.90;99.90;;;;;;4930110;29;20055;-77
2021/03/05 08:07:31;;;;;;;20.65;14.02;;;2.90;99.90;;;;;;4921061;29;20404;-77
2021/03/05 08:09:58;;;;;;;42.63;24.73;;;2.90;99.90;;;;;;4936332;29;20051;-78
2021/03/05 08:12:42;;;;;;;17.95;12.20;;;3.00;99.90;;;;;;4919282;29;20053;-78
2021/03/05 08:15:09;;;;;;;12.40;6.97;;;3.00;99.90;;;;;;4920648;29;20067;-78
2021/03/05 08:17:40;;;;;;;9.88;7.05;;;3.00;99.90;;;;;;4920776;29;20079;-78
2021/03/05 08:20:17;;;;;;;9.73;5.65;;;3.00;99.90;;;;;;4921084;29;20046;-77
2021/03/05 08:22:58;;;;;;;8.43;4.53;;;3.00;99.90;;;;;;4936033;29;20499;-78
2021/03/05 08:25:34;;;;;;;8.00;4.68;;;2.90;99.90;;;;;;4952506;29;20126;-77
2021/03/05 08:28:26;;;;;;;6.93;4.22;;;3.00;99.90;;;;;;4936455;29;20134;-77
2021/03/05 08:30:57;;;;;;;7.60;3.58;;;3.00;99.90;;;;;;4951065;29;20047;-78
2021/03/05 08:33:33;;;;;;;6.05;3.58;;;3.00;99.90;;;;;;4936020;29;20486;-77
2021/03/05 08:36:04;;;;;;;6.15;3.35;;;3.00;99.90;;;;;;4922917;29;20049;-78
2021/03/05 08:38:36;;;;;;;15.15;8.07;;;3.00;99.90;;;;;;4934698;29;20047;-77
2021/03/05 08:41:17;;;;;;;15.93;7.35;;;3.00;99.90;;;;;;4935431;29;20051;-77
2021/03/05 08:44:07;;;;;;;6.45;4.03;;;3.00;99.90;;;;;;4920153;29;20043;-78
2021/03/05 08:46:39;;;;;;;6.40;3.75;;;2.90;99.90;;;;;;4919739;29;20051;-77
2021/03/05 08:49:06;;;;;;;4.93;3.10;;;2.90;99.90;;;;;;4931902;29;20114;-78
2021/03/05 08:51:35;;;;;;;5.35;3.42;;;2.90;99.90;;;;;;4935434;28;20043;-78
2021/03/05 08:54:02;;;;;;;5.45;3.10;;;2.80;99.90;;;;;;4919814;29;20055;-78
2021/03/05 08:56:31;;;;;;;5.68;3.38;;;2.80;99.90;;;;;;4951934;29;20126;-77
2021/03/05 08:59:09;;;;;;;4.95;3.40;;;2.80;99.90;;;;;;4919488;29;20043;-78
2021/03/05 09:01:41;;;;;;;4.80;3.03;;;2.80;99.90;;;;;;4935270;29;20401;-77
2021/03/05 09:04:14;;;;;;;3.85;2.75;;;2.80;99.90;;;;;;4902592;29;20667;-77
2021/03/05 09:06:53;;;;;;;4.80;2.78;;;2.80;99.90;;;;;;4920021;29;20502;-78
2021/03/05 09:09:32;;;;;;;5.63;3.10;;;2.80;99.90;;;;;;4917661;29;20061;-77
2021/03/05 09:12:09;;;;;;;6.07;3.00;;;2.90;99.90;;;;;;4919233;29;20754;-77
2021/03/05 09:14:35;;;;;;;5.78;3.67;;;2.90;99.90;;;;;;4919401;29;20051;-77
2021/03/05 09:17:04;;;;;;;5.00;3.33;;;2.90;99.90;;;;;;4919289;29;20143;-77
2021/03/05 09:19:40;;;;;;;;;;;2.90;99.90;;;;;;4935290;29;20146;-77
2021/03/05 09:22:25;;;;;;;35.05;13.38;;;2.80;99.90;;;;;;4919892;29;19950;-77
2021/03/05 09:25:01;;;;;;;61.83;23.35;;;2.90;99.90;;;;;;4919577;29;20574;-77
2021/03/05 09:27:40;;;;;;;11.00;8.05;;;2.90;99.90;;;;;;4919764;29;20059;-78
2021/03/05 09:30:24;;;;;;;8.52;5.10;;;2.90;99.90;;;;;;4920771;29;20142;-78
2021/03/05 09:32:52;;;;;;;6.00;3.85;;;3.00;99.90;;;;;;4919484;29;20433;-78
2021/03/05 09:35:30;;;;;;;11.88;9.57;;;3.00;99.90;;;;;;4919239;28;20047;-78
2021/03/05 09:38:01;;;;;;;8.23;4.95;;;2.90;99.90;;;;;;4936103;29;20051;-78
2021/03/05 09:40:34;;;;;;;5.25;3.17;;;2.90;99.90;;;;;;4922950;29;20051;-79
2021/03/05 09:43:29;;;;;;;8.73;4.78;;;2.90;99.90;;;;;;4923159;29;20043;-79
2021/03/05 09:46:22;;;;;;;7.35;3.88;;;2.90;99.90;;;;;;4955590;29;20047;-79
2021/03/05 10:06:33;;;;;;;9.93;6.65;;;2.90;99.90;;;;;;5360680;23;20550;-79
2021/03/05 10:24:25;;;;;;;17.40;10.43;;;3.10;99.90;;;;;;5820186;23;20163;-80
2021/03/05 10:27:11;;;;;;;37.30;21.73;;;3.20;99.90;;;;;;4920255;29;20047;-79
2021/03/05 10:39:05;;;;;;;9.40;5.38;;;3.50;99.90;;;;;;5149649;23;20091;-82
2021/03/05 10:53:17;;;;;;;12.63;5.85;;;4.10;99.90;;;;;;5561456;23;20047;-83
2021/03/05 10:55:45;;;;;;;8.88;5.07;;;4.10;99.90;;;;;;4957105;29;20051;-82
2021/03/05 12:33:38;;;;;;;6.13;3.97;;;5.20;99.90;;;;;;4953968;29;20079;-76
2021/03/05 12:49:13;;;;;;;8.35;4.40;;;5.30;99.90;;;;;;4951587;29;20099;-77
2021/03/05 12:51:46;;;;;;;6.63;3.70;;;5.30;99.90;;;;;;4933757;29;20051;-77
2021/03/05 12:54:12;;;;;;;10.70;4.95;;;5.30;99.90;;;;;;4934096;29;20052;-77
2021/03/05 12:56:44;;;;;;;13.65;5.60;;;5.20;99.90;;;;;;4934124;29;20095;-78
2021/03/05 12:59:11;;;;;;;11.32;6.00;;;5.10;99.90;;;;;;4934248;29;20039;-77
2021/03/05 13:01:38;;;;;;;9.80;5.32;;;5.20;99.90;;;;;;4918181;29;20052;-77
2021/03/05 13:04:08;;;;;;;10.10;5.90;;;5.20;99.90;;;;;;4934178;29;20058;-77
2021/03/05 13:06:35;;;;;;;10.15;6.40;;;5.20;99.90;;;;;;4934072;29;20058;-78
2021/03/05 15:22:38;;;;;;;10.38;5.88;;;4.30;99.90;;;;;;4957072;29;20055;-80
2021/03/05 15:25:08;;;;;;;8.80;5.32;;;4.20;99.90;;;;;;4943620;29;20076;-80
2021/03/05 15:27:34;;;;;;;10.35;5.82;;;4.20;99.90;;;;;;4931922;29;20491;-80
2021/03/05 15:30:00;;;;;;;11.48;6.03;;;4.20;99.90;;;;;;4930576;29;20048;-80
2021/03/05 15:32:27;;;;;;;10.43;5.40;;;4.10;99.90;;;;;;4938523;29;20079;-80
2021/03/05 15:34:53;;;;;;;8.45;5.15;;;4.10;99.90;;;;;;4932552;29;20048;-80
2021/03/05 15:37:20;;;;;;;10.32;5.93;;;4.10;99.90;;;;;;4925974;29;20040;-80
2021/03/05 15:39:46;;;;;;;9.75;5.70;;;3.90;99.90;;;;;;4929254;29;20046;-80
2021/03/05 15:42:12;;;;;;;12.45;6.82;;;3.70;99.90;;;;;;4922294;29;20059;-80
2021/03/05 15:44:44;;;;;;;12.02;6.35;;;3.60;99.90;;;;;;4924191;29;20067;-80
2021/03/05 15:47:10;;;;;;;10.23;5.72;;;3.40;99.90;;;;;;4928174;29;20055;-80
2021/03/05 15:49:38;;;;;;;10.68;5.30;;;3.40;99.90;;;;;;4940008;29;20056;-80
2021/03/05 15:52:10;;;;;;;10.15;5.28;;;3.40;99.90;;;;;;4942943;29;20095;-80
2021/03/05 15:54:36;;;;;;;9.98;5.95;;;3.30;99.90;;;;;;4940413;29;20047;-80
2021/03/05 15:57:03;;;;;;;9.95;5.93;;;3.30;99.90;;;;;;4937504;29;20542;-80
2021/03/05 15:59:29;;;;;;;11.80;6.68;;;3.30;99.90;;;;;;4921399;29;20043;-80
2021/03/05 16:02:01;;;;;;;11.48;6.60;;;3.30;99.90;;;;;;4939865;29;20655;-80
2021/03/05 16:04:27;;;;;;;12.90;6.70;;;3.30;99.90;;;;;;4927915;29;20052;-80
2021/03/05 16:06:55;;;;;;;14.73;7.75;;;3.30;99.90;;;;;;4942569;29;20062;-80
2021/03/05 16:09:24;;;;;;;12.90;6.82;;;3.30;99.90;;;;;;4943148;29;20058;-80
2021/03/05 16:11:51;;;;;;;11.25;6.35;;;3.40;99.90;;;;;;4937725;29;20043;-80
2021/03/05 16:14:22;;;;;;;18.55;9.02;;;3.40;99.90;;;;;;4934220;29;20043;-80
2021/03/05 16:16:49;;;;;;;39.38;18.75;;;3.40;99.90;;;;;;4924013;29;20044;-80
2021/03/05 16:19:15;;;;;;;12.85;7.20;;;3.40;99.90;;;;;;4922664;29;20052;-81
2021/03/05 16:21:42;;;;;;;13.43;8.80;;;3.40;99.90;;;;;;4920058;29;20063;-80
2021/03/05 16:24:14;;;;;;;13.73;8.60;;;3.30;99.90;;;;;;4913176;29;20059;-80
2021/03/05 16:26:41;;;;;;;10.70;5.82;;;3.40;99.90;;;;;;4916402;29;20075;-80
2021/03/05 16:29:07;;;;;;;10.70;5.55;;;3.30;99.90;;;;;;4922918;29;20044;-80
2021/03/05 16:31:40;;;;;;;7.90;4.70;;;3.30;99.90;;;;;;4931678;29;20061;-80
2021/03/05 16:34:13;;;;;;;8.40;5.53;;;3.30;99.90;;;;;;4922550;29;20051;-81
2021/03/05 16:36:44;;;;;;;8.30;5.10;;;3.20;99.90;;;;;;4922150;29;20139;-80
2021/03/05 16:39:17;;;;;;;8.43;4.75;;;3.10;99.90;;;;;;4937426;29;20048;-82
2021/03/05 16:41:51;;;;;;;9.60;5.43;;;3.00;99.90;;;;;;4920351;29;20058;-81
2021/03/05 16:44:23;;;;;;;10.35;4.97;;;3.10;99.90;;;;;;4918848;29;20071;-80
2021/03/05 16:46:49;;;;;;;10.63;5.55;;;3.00;99.90;;;;;;4933455;29;20075;-81
2021/03/05 16:49:16;;;;;;;10.50;5.07;;;3.00;99.90;;;;;;4938174;29;20083;-81
2021/03/05 16:51:47;;;;;;;8.20;4.60;;;2.90;99.90;;;;;;4944753;29;20095;-81
2021/03/05 16:54:13;;;;;;;10.27;5.97;;;2.90;99.90;;;;;;4937245;29;20079;-81
2021/03/05 16:57:35;;;;;;;12.35;7.38;;;2.90;99.90;;;;;;4955687;29;20071;-83
2021/03/05 17:07:31;;;;;;;12.98;7.07;;;3.10;99.90;;;;;;5095078;23;20038;-83
2021/03/05 23:04:02;;;;;;;5.90;4.60;;;0.20;99.90;;;;;;6072685;23;20771;31
2021/03/05 23:06:33;;;;;;;6.50;4.90;;;0.20;99.90;;;;;;4891417;29;20685;-78
2021/03/05 23:09:05;;;;;;;6.60;5.38;;;0.10;99.90;;;;;;4883658;29;20054;-78
2021/03/05 23:11:38;;;;;;;5.85;4.57;;;0.10;99.90;;;;;;4898664;29;20048;-78
2021/03/05 23:14:04;;;;;;;7.60;5.60;;;0.10;99.90;;;;;;4898587;29;20051;-77
2021/03/05 23:16:36;;;;;;;7.18;4.93;;;0.10;99.90;;;;;;4898556;29;20048;-78
2021/03/05 23:19:03;;;;;;;7.07;5.20;;;0.00;99.90;;;;;;4898088;29;20044;-78
2021/03/05 23:21:29;;;;;;;6.85;5.63;;;0.00;99.90;;;;;;4898393;29;20052;-77
2021/03/05 23:23:56;;;;;;;5.28;4.50;;;0.00;99.90;;;;;;4898434;29;20147;-77
2021/03/05 23:26:27;;;;;;;6.72;4.75;;;0.00;99.90;;;;;;4898317;29;20144;-78
2021/03/05 23:28:58;;;;;;;10.05;5.70;;;-0.10;99.90;;;;;;4897983;29;20051;-78
2021/03/05 23:31:29;;;;;;;7.90;5.90;;;-0.10;99.90;;;;;;4898466;29;20099;-77
2021/03/05 23:33:56;;;;;;;9.43;5.53;;;-0.10;99.90;;;;;;4898354;29;20047;-78
2021/03/05 23:36:28;;;;;;;7.60;5.68;;;-0.10;99.90;;;;;;4898378;29;20411;-78
2021/03/05 23:38:59;;;;;;;6.47;4.80;;;-0.10;99.90;;;;;;4897619;29;20055;-78
2021/03/05 23:41:31;;;;;;;6.57;5.07;;;-0.10;99.90;;;;;;4899196;29;20115;-77
2021/03/05 23:44:02;;;;;;;8.38;5.88;;;-0.10;99.90;;;;;;4899143;29;20044;-77
2021/03/05 23:46:33;;;;;;;15.10;9.35;;;-0.20;99.90;;;;;;4898095;29;20502;-78
2021/03/05 23:49:05;;;;;;;12.63;8.23;;;-0.20;99.90;;;;;;4897715;29;20044;-78
2021/03/05 23:51:36;;;;;;;21.58;11.20;;;-0.20;99.90;;;;;;4898166;29;20048;-77
2021/03/05 23:54:07;;;;;;;19.98;10.43;;;-0.20;99.90;;;;;;4915242;29;20036;-77
2021/03/05 23:56:38;;;;;;;12.57;9.07;;;-0.20;99.90;;;;;;4898973;29;20044;-77
2021/03/05 23:59:09;;;;;;;11.57;8.05;;;-0.20;99.90;;;;;;4883164;29;20058;-77
